Time;durP1;ratioP1;P1;durP2;ratioP2;P2;SDS_P1;SDS_P2;PMS_P1;PMS_P2;Temp;Humidity;BMP_temperature;BMP_pressure;BME280_temperature;BME280_humidity;BME280_pressure;Samples;Min_cycle;Max_cycle;Signal;HPM_P1;HPM_P2
2024/01/24 00:01:15;;;;;;;11.40;2.40;;;;;;;8.33;65.96;99425.81;5004151;28;103292;-73
2024/01/24 00:03:43;;;;;;;5.47;2.08;;;;;;;8.37;66.01;99427.22;5001016;28;102672;-72
2024/01/24 00:06:11;;;;;;;6.05;2.00;;;;;;;8.40;65.99;99426.13;5001226;27;104304;-72
2024/01/24 00:08:39;;;;;;;7.38;2.28;;;;;;;8.42;65.51;99414.44;5000444;28;104563;-72
2024/01/24 00:11:09;;;;;;;5.97;2.72;;;;;;;8.45;65.53;99414.19;4987018;28;103365;-73
2024/01/24 00:13:37;;;;;;;6.18;2.45;;;;;;;8.57;65.52;99408.81;5013764;28;102831;-73
2024/01/24 00:16:05;;;;;;;6.65;2.45;;;;;;;8.59;65.26;99414.75;4990156;28;105008;-72
2024/01/24 00:18:33;;;;;;;5.70;2.28;;;;;;;8.66;65.01;99402.69;4990370;28;103213;-72
2024/01/24 00:21:01;;;;;;;5.97;2.22;;;;;;;8.66;65.19;99384.22;4986480;28;103207;-72
2024/01/24 00:23:29;;;;;;;6.03;2.65;;;;;;;8.75;65.41;99375.44;5006555;28;102615;-73
2024/01/24 00:25:57;;;;;;;6.10;2.35;;;;;;;8.71;65.02;99381.13;5008241;28;104289;-72
2024/01/24 00:28:27;;;;;;;10.27;2.60;;;;;;;8.76;64.77;99382.41;4986647;28;104432;-72
2024/01/24 00:30:55;;;;;;;7.55;2.38;;;;;;;8.83;65.09;99371.25;5007404;28;103271;-73
2024/01/24 00:33:25;;;;;;;8.05;2.20;;;;;;;8.87;64.86;99375.28;4990695;28;103187;-73
2024/01/24 00:35:53;;;;;;;5.57;2.10;;;;;;;8.83;65.35;99363.34;5007769;28;102682;-72
2024/01/24 00:38:21;;;;;;;6.70;2.30;;;;;;;8.85;65.02;99348.19;4987094;28;103367;-73
2024/01/24 00:40:49;;;;;;;5.47;2.33;;;;;;;8.99;64.47;99346.91;4991244;28;104385;-73
2024/01/24 00:43:17;;;;;;;6.38;2.30;;;;;;;9.02;64.39;99336.88;5005529;28;102675;-73
2024/01/24 00:45:48;;;;;;;6.30;2.30;;;;;;;9.06;64.46;99351.47;4981789;28;104385;-73
2024/01/24 00:48:16;;;;;;;9.75;2.40;;;;;;;9.07;65.02;99350.50;5005934;28;103759;-73
2024/01/24 00:50:44;;;;;;;6.25;2.28;;;;;;;9.05;64.48;99357.75;5008827;28;103266;-73
2024/01/24 00:53:19;;;;;;;7.47;2.38;;;;;;;9.08;64.18;99362.75;5007462;28;102599;-73
2024/01/24 00:55:47;;;;;;;5.63;2.05;;;;;;;9.13;64.70;99364.94;5003110;28;104102;-73
2024/01/24 00:58:15;;;;;;;3.17;1.85;;;;;;;9.15;64.77;99373.56;4994502;28;103441;-73
2024/01/24 01:00:43;;;;;;;6.65;2.30;;;;;;;9.18;64.67;99372.47;4987773;28;103131;-73
2024/01/24 01:03:12;;;;;;;7.07;2.22;;;;;;;9.22;64.24;99358.84;4987174;28;102679;-73
2024/01/24 01:05:40;;;;;;;4.80;1.98;;;;;;;9.23;63.87;99354.38;5004333;28;102905;-73
2024/01/24 01:08:08;;;;;;;5.15;2.05;;;;;;;9.26;64.25;99357.56;5007262;28;102927;-73
2024/01/24 01:10:36;;;;;;;4.80;1.95;;;;;;;9.25;63.67;99363.00;5005652;28;103291;-73
2024/01/24 01:13:04;;;;;;;4.40;1.73;;;;;;;9.27;63.92;99351.31;5004887;28;102719;-73
2024/01/24 01:15:32;;;;;;;5.40;2.30;;;;;;;9.26;63.75;99341.72;5006477;28;104110;-73
2024/01/24 01:18:00;;;;;;;6.07;3.00;;;;;;;9.32;63.96;99345.56;4982973;28;103269;-72
2024/01/24 01:20:31;;;;;;;5.78;2.80;;;;;;;9.30;63.57;99334.28;4976418;28;104117;-73
2024/01/24 01:22:59;;;;;;;3.28;1.70;;;;;;;9.22;63.90;99327.13;5008491;28;103526;-73
2024/01/24 01:25:27;;;;;;;6.32;2.00;;;;;;;9.26;63.82;99314.41;5003831;28;102659;-73
2024/01/24 01:27:55;;;;;;;5.57;1.85;;;;;;;9.28;63.77;99326.53;5009067;28;103418;-72
2024/01/24 01:30:23;;;;;;;5.80;2.00;;;;;;;9.27;63.39;99321.38;4993397;28;104244;-73
2024/01/24 01:32:51;;;;;;;8.25;1.80;;;;;;;9.32;63.52;99318.31;5007174;28;102635;-73
2024/01/24 01:35:20;;;;;;;3.13;1.90;;;;;;;9.34;63.25;99324.28;5008125;28;102644;-73
2024/01/24 01:37:49;;;;;;;8.85;2.22;;;;;;;9.31;63.94;99330.69;4983792;28;104399;-73
2024/01/24 01:40:17;;;;;;;5.28;1.90;;;;;;;9.30;63.89;99323.72;5010249;28;102710;-73
2024/01/24 01:42:45;;;;;;;5.30;2.45;;;;;;;9.31;63.75;99335.16;4988481;28;102770;-73
2024/01/24 01:45:13;;;;;;;3.90;1.70;;;;;;;9.34;63.57;99326.91;5001135;28;102704;-73
2024/01/24 01:47:43;;;;;;;8.00;2.10;;;;;;;9.34;63.93;99330.41;4972805;28;103085;-73
2024/01/24 01:50:14;;;;;;;6.00;2.00;;;;;;;9.35;63.74;99318.84;5004190;28;103180;-73
2024/01/24 01:52:43;;;;;;;6.47;1.98;;;;;;;9.35;63.49;99326.78;5003818;28;102616;-73
2024/01/24 01:55:14;;;;;;;4.50;1.92;;;;;;;9.41;63.76;99325.38;4992362;28;104204;-73
2024/01/24 01:57:44;;;;;;;4.25;1.95;;;;;;;9.39;63.61;99333.47;4982184;28;104353;-73
2024/01/24 02:00:20;;;;;;;4.05;1.80;;;;;;;9.36;63.79;99322.34;5002811;28;103279;-73
2024/01/24 02:02:48;;;;;;;5.38;1.95;;;;;;;9.39;63.68;99320.25;4986891;28;102797;-73
2024/01/24 02:05:17;;;;;;;4.80;2.13;;;;;;;9.44;63.66;99325.91;4987041;28;102962;-73
2024/01/24 02:07:46;;;;;;;6.85;2.05;;;;;;;9.43;63.48;99324.25;5008522;28;104209;-73
2024/01/24 02:10:16;;;;;;;4.85;1.95;;;;;;;9.45;63.56;99326.75;4984490;28;103288;-73
2024/01/24 02:12:44;;;;;;;4.10;1.77;;;;;;;9.42;64.21;99330.50;4980148;28;102735;-73
2024/01/24 02:15:12;;;;;;;4.78;1.95;;;;;;;9.35;63.84;99310.91;4990925;28;104412;-73
2024/01/24 02:17:40;;;;;;;3.78;1.58;;;;;;;9.40;64.13;99302.56;5001397;28;103647;-73
2024/01/24 02:20:09;;;;;;;5.85;1.95;;;;;;;9.42;64.16;99304.06;5008655;28;103447;-73
2024/01/24 02:22:38;;;;;;;2.95;1.50;;;;;;;9.43;64.16;99295.16;5009219;28;102751;-73
2024/01/24 02:25:08;;;;;;;4.40;2.13;;;;;;;9.39;64.08;99290.31;5008546;28;104215;-73
2024/01/24 02:27:36;;;;;;;3.97;1.73;;;;;;;9.43;64.12;99287.25;5005381;28;104086;-73
2024/01/24 02:30:05;;;;;;;4.18;2.10;;;;;;;9.35;64.54;99300.34;4985646;28;103204;-73
2024/01/24 02:32:32;;;;;;;5.82;1.80;;;;;;;9.37;64.74;99295.75;4996974;28;103021;-73
2024/01/24 02:35:01;;;;;;;7.95;2.50;;;;;;;9.35;64.41;99288.94;4993672;28;103199;-73
2024/01/24 02:37:28;;;;;;;4.43;1.60;;;;;;;9.36;64.48;99275.56;4998565;28;103555;-73
2024/01/24 02:39:56;;;;;;;3.65;1.73;;;;;;;9.34;64.65;99274.91;4988803;28;103361;-73
2024/01/24 02:42:26;;;;;;;4.20;1.70;;;;;;;9.27;64.63;99276.44;4980514;28;102847;-73
2024/01/24 02:44:54;;;;;;;5.03;2.13;;;;;;;9.23;64.55;99272.44;4983112;28;102678;-72
2024/01/24 02:47:22;;;;;;;6.47;1.98;;;;;;;9.23;64.72;99270.59;5005518;28;103364;-73
2024/01/24 02:49:50;;;;;;;7.05;1.98;;;;;;;9.19;64.51;99273.69;5002987;28;103230;-73
2024/01/24 02:52:18;;;;;;;3.20;1.98;;;;;;;9.17;64.73;99270.34;5002202;28;102865;-72
2024/01/24 02:54:46;;;;;;;3.47;1.65;;;;;;;9.15;64.76;99270.50;5002919;28;103236;-72
2024/01/24 02:57:15;;;;;;;3.78;1.65;;;;;;;9.12;64.68;99258.41;4991497;28;105606;-72
2024/01/24 02:59:44;;;;;;;4.72;1.63;;;;;;;9.10;64.61;99255.09;4988229;28;104154;-72
2024/01/24 03:02:12;;;;;;;6.03;1.80;;;;;;;9.09;64.65;99258.72;4972380;28;102823;-72
2024/01/24 03:04:40;;;;;;;3.85;1.80;;;;;;;9.08;64.99;99262.34;4987952;28;104063;-72
2024/01/24 03:07:09;;;;;;;3.65;1.60;;;;;;;9.12;65.13;99261.06;4982042;28;104014;-72
2024/01/24 03:09:37;;;;;;;3.05;1.70;;;;;;;9.12;64.90;99273.47;5008972;28;102652;-72
2024/01/24 03:12:06;;;;;;;5.18;2.13;;;;;;;9.17;65.10;99265.06;5012548;28;102665;-72
2024/01/24 03:14:34;;;;;;;3.63;2.10;;;;;;;9.15;64.91;99277.63;5003203;28;102963;-72
2024/01/24 03:17:05;;;;;;;4.72;1.88;;;;;;;9.20;65.17;99270.91;4992717;28;103305;-72
2024/01/24 03:19:34;;;;;;;5.10;1.60;;;;;;;9.15;65.68;99272.34;5001819;28;103615;-72
2024/01/24 03:22:02;;;;;;;3.72;1.73;;;;;;;9.27;64.85;99271.16;5002945;28;102609;-72
2024/01/24 03:24:31;;;;;;;4.88;2.05;;;;;;;9.24;65.28;99269.63;4991854;28;103797;-73
2024/01/24 03:26:59;;;;;;;4.60;1.70;;;;;;;9.23;65.46;99267.16;4995929;28;103179;-72
2024/01/24 03:29:27;;;;;;;5.20;1.95;;;;;;;9.34;65.35;99277.53;4990246;28;104545;-72
2024/01/24 03:31:55;;;;;;;6.05;2.25;;;;;;;9.31;65.44;99269.88;5002829;28;102710;-72
2024/01/24 03:34:27;;;;;;;3.83;1.95;;;;;;;9.37;65.41;99276.41;5008562;28;102736;-72
2024/01/24 03:36:55;;;;;;;3.15;1.55;;;;;;;9.37;65.33;99271.13;4997109;28;104109;-73
2024/01/24 03:39:23;;;;;;;6.18;1.90;;;;;;;9.40;65.53;99269.00;5009515;28;103196;-72
2024/01/24 03:41:51;;;;;;;3.78;2.03;;;;;;;9.38;65.65;99272.78;5011091;28;102771;-73
2024/01/24 03:44:18;;;;;;;2.58;1.48;;;;;;;9.44;65.64;99267.72;5007449;28;102686;-73
2024/01/24 03:46:46;;;;;;;4.05;1.90;;;;;;;9.45;65.57;99274.69;4994900;28;104242;-73
2024/01/24 03:49:14;;;;;;;3.08;1.55;;;;;;;9.48;65.69;99278.03;5008091;28;103321;-73
2024/01/24 03:51:44;;;;;;;5.80;2.13;;;;;;;9.45;66.14;99264.09;4982155;28;102761;-73
2024/01/24 03:54:13;;;;;;;8.02;1.92;;;;;;;9.49;66.26;99263.84;5012474;28;104003;-73
2024/01/24 03:56:41;;;;;;;2.20;1.50;;;;;;;9.51;65.92;99256.56;5012893;28;103459;-73
2024/01/24 03:59:09;;;;;;;4.95;2.15;;;;;;;9.56;66.07;99255.16;5013678;28;103222;-73
2024/01/24 04:01:37;;;;;;;4.18;1.85;;;;;;;9.56;66.20;99254.31;5009532;28;102672;-73
2024/01/24 04:04:05;;;;;;;4.22;1.90;;;;;;;9.58;66.42;99252.38;5004069;28;102747;-74
2024/01/24 04:06:33;;;;;;;5.75;1.95;;;;;;;9.61;66.29;99258.19;4983380;28;103267;-73
2024/01/24 04:09:03;;;;;;;5.32;1.83;;;;;;;9.57;66.62;99256.00;5008188;28;103299;-73
2024/01/24 04:11:31;;;;;;;4.15;1.65;;;;;;;9.63;66.45;99255.41;4986326;28;103262;-73
2024/01/24 04:14:01;;;;;;;4.18;1.88;;;;;;;9.60;66.82;99253.88;5000483;28;102720;-74
2024/01/24 04:16:29;;;;;;;2.85;1.58;;;;;;;9.65;66.58;99264.00;5003532;28;103329;-73
2024/01/24 04:18:57;;;;;;;5.30;1.80;;;;;;;9.72;66.47;99280.13;5010672;28;103261;-73
2024/01/24 04:21:25;;;;;;;2.70;1.67;;;;;;;9.76;66.60;99281.47;5006211;28;103025;-73
2024/01/24 04:23:53;;;;;;;6.38;1.98;;;;;;;9.76;66.67;99284.97;4992141;28;102832;-73
2024/01/24 04:26:22;;;;;;;4.47;1.90;;;;;;;9.84;66.29;99291.31;5009553;28;103266;-73
2024/01/24 04:28:50;;;;;;;4.43;1.80;;;;;;;9.86;66.46;99286.72;5008367;28;103249;-73
2024/01/24 04:31:18;;;;;;;5.13;2.00;;;;;;;9.83;66.71;99281.75;5005896;28;102752;-73
2024/01/24 04:33:46;;;;;;;3.25;1.77;;;;;;;9.86;66.72;99284.06;5013363;28;104097;-73
2024/01/24 04:36:14;;;;;;;6.88;1.88;;;;;;;9.88;66.73;99279.47;4995322;28;103828;-73
2024/01/24 04:38:43;;;;;;;3.40;1.60;;;;;;;9.89;66.88;99281.13;4992350;28;104118;-73
2024/01/24 04:41:11;;;;;;;3.83;1.77;;;;;;;9.92;66.65;99283.50;5000031;28;102974;-74
2024/01/24 04:43:41;;;;;;;5.38;2.05;;;;;;;9.94;66.75;99277.06;4985135;28;102861;-73
2024/01/24 04:46:13;;;;;;;3.40;1.90;;;;;;;9.98;66.74;99276.75;5007928;28;103213;-73
2024/01/24 04:48:42;;;;;;;4.60;1.70;;;;;;;10.01;66.81;99264.06;4988906;28;104395;-73
2024/01/24 04:51:11;;;;;;;3.67;1.50;;;;;;;10.03;66.83;99287.72;4984429;27;102799;-73
2024/01/24 04:53:40;;;;;;;5.70;2.05;;;;;;;10.04;66.67;99292.88;5006050;28;102649;-73
2024/01/24 04:56:08;;;;;;;5.88;2.10;;;;;;;10.06;66.74;99282.97;5011957;28;103962;-73
2024/01/24 04:58:37;;;;;;;5.97;2.08;;;;;;;10.07;66.63;99278.50;4993740;28;103820;-73
2024/01/24 05:01:06;;;;;;;5.38;1.77;;;;;;;10.04;67.03;99269.03;5006785;28;102619;-74
2024/01/24 05:03:34;;;;;;;6.07;2.20;;;;;;;10.04;66.88;99284.09;5012307;28;103869;-73
2024/01/24 05:06:03;;;;;;;4.15;1.77;;;;;;;10.08;66.77;99290.75;5001739;27;103269;-73
2024/01/24 05:08:38;;;;;;;3.08;1.50;;;;;;;10.06;67.18;99279.47;5013494;28;103309;-73
2024/01/24 05:11:06;;;;;;;4.57;2.10;;;;;;;10.07;67.40;99284.66;4987867;28;102781;-74
2024/01/24 05:13:34;;;;;;;2.47;1.65;;;;;;;10.06;67.41;99272.38;5008975;28;102698;-74
2024/01/24 05:16:03;;;;;;;4.15;1.85;;;;;;;10.08;67.40;99274.88;4977255;28;105423;-74
2024/01/24 05:18:32;;;;;;;4.82;2.08;;;;;;;10.04;68.13;99255.81;5006965;28;103233;-74
2024/01/24 05:21:02;;;;;;;2.05;1.50;;;;;;;10.09;68.17;99268.59;5008147;28;102657;-74
2024/01/24 05:23:30;;;;;;;3.42;2.00;;;;;;;10.14;68.72;99287.50;5011373;28;103201;-74
2024/01/24 05:25:58;;;;;;;5.28;2.13;;;;;;;10.20;69.88;99294.00;5009599;28;103329;-74
2024/01/24 05:28:26;;;;;;;5.88;1.90;;;;;;;10.36;69.96;99288.91;5003249;28;103199;-74
2024/01/24 05:30:54;;;;;;;3.95;1.67;;;;;;;10.45;69.30;99287.13;4976441;28;102759;-74
2024/01/24 05:33:23;;;;;;;5.20;1.85;;;;;;;10.52;69.36;99271.47;4997001;28;102671;-75
2024/01/24 05:35:52;;;;;;;3.35;2.00;;;;;;;10.59;69.54;99272.53;5007751;28;103973;-75
2024/01/24 05:38:21;;;;;;;4.15;1.77;;;;;;;10.61;69.70;99267.88;4983951;28;103446;-74
2024/01/24 05:40:48;;;;;;;4.60;2.00;;;;;;;10.60;69.53;99248.53;5002427;28;102684;-74
2024/01/24 05:43:17;;;;;;;3.42;1.88;;;;;;;10.70;69.58;99259.03;5007054;28;104000;-69
2024/01/24 05:45:50;;;;;;;6.10;1.90;;;;;;;10.75;69.24;99277.94;5011901;28;104212;-73
2024/01/24 05:48:18;;;;;;;3.17;1.70;;;;;;;10.84;68.61;99289.44;5005005;28;103210;-74
2024/01/24 05:50:47;;;;;;;2.38;1.50;;;;;;;10.81;69.13;99265.06;5011051;28;103270;-73
2024/01/24 05:53:16;;;;;;;3.70;1.58;;;;;;;10.92;68.72;99278.88;5005488;28;103975;-74
2024/01/24 05:55:44;;;;;;;4.10;1.80;;;;;;;10.88;68.77;99255.50;4996685;28;104273;-75
2024/01/24 05:58:12;;;;;;;4.97;1.80;;;;;;;10.94;68.43;99229.19;5011820;28;103230;-75
2024/01/24 06:00:40;;;;;;;4.45;1.70;;;;;;;10.95;68.65;99230.03;5007549;28;102710;-75
2024/01/24 06:03:08;;;;;;;3.50;1.50;;;;;;;10.91;68.55;99233.97;4995600;28;102715;-73
2024/01/24 06:05:36;;;;;;;6.70;2.00;;;;;;;10.92;68.63;99240.94;5007742;28;104037;-72
2024/01/24 06:08:05;;;;;;;3.05;1.65;;;;;;;10.90;68.47;99229.66;5005138;28;103229;-75
2024/01/24 06:10:35;;;;;;;4.25;1.80;;;;;;;10.97;68.34;99241.31;4995128;28;102744;-74
2024/01/24 06:13:03;;;;;;;4.20;2.00;;;;;;;10.94;68.55;99255.69;5012699;28;103449;-74
2024/01/24 06:15:31;;;;;;;2.40;1.50;;;;;;;10.99;68.45;99252.59;5014524;28;104110;-75
2024/01/24 06:17:59;;;;;;;2.70;1.60;;;;;;;10.99;68.35;99263.19;5010564;28;103381;-75
2024/01/24 06:20:27;;;;;;;4.43;1.63;;;;;;;11.00;68.87;99267.50;4989030;28;102840;-74
2024/01/24 06:22:55;;;;;;;3.13;1.83;;;;;;;11.01;68.87;99260.38;4996851;28;103091;-72
2024/01/24 06:25:23;;;;;;;3.90;1.60;;;;;;;11.02;69.01;99273.47;4997373;28;104414;-74
2024/01/24 06:27:52;;;;;;;3.15;1.60;;;;;;;11.06;68.85;99272.16;4995702;28;104249;-74
2024/01/24 06:30:20;;;;;;;3.60;1.35;;;;;;;11.13;68.71;99279.50;5005552;28;102620;-74
2024/01/24 06:32:51;;;;;;;3.30;1.77;;;;;;;11.13;68.77;99268.91;4992748;28;103995;-74
2024/01/24 06:35:20;;;;;;;3.45;1.50;;;;;;;11.12;69.09;99273.34;5010399;28;103361;-75
2024/01/24 06:37:53;;;;;;;2.95;1.52;;;;;;;11.16;68.86;99257.97;4991075;28;104404;-74
2024/01/24 06:40:21;;;;;;;3.00;1.20;;;;;;;11.16;69.13;99255.31;4990445;28;103062;-74
2024/01/24 06:42:50;;;;;;;4.13;1.98;;;;;;;11.19;68.80;99257.66;5012185;28;102668;-74
2024/01/24 06:45:20;;;;;;;2.63;1.52;;;;;;;11.20;69.41;99264.63;4996646;28;104283;-74
2024/01/24 06:47:48;;;;;;;4.35;1.88;;;;;;;11.22;69.22;99262.66;4984726;28;103252;-75
2024/01/24 06:50:17;;;;;;;2.05;1.40;;;;;;;11.26;69.26;99253.38;5009198;28;102619;-73
2024/01/24 06:52:46;;;;;;;6.65;1.98;;;;;;;11.30;69.41;99243.28;4999284;28;103047;-74
2024/01/24 06:55:15;;;;;;;2.88;1.40;;;;;;;11.28;70.23;99254.06;5016378;28;104030;-74
2024/01/24 06:57:43;;;;;;;3.08;1.30;;;;;;;11.26;70.19;99237.47;5016934;28;103214;-74
2024/01/24 07:00:11;;;;;;;3.05;1.38;;;;;;;11.23;70.43;99249.22;4992255;28;102678;-74
2024/01/24 07:02:41;;;;;;;2.65;1.20;;;;;;;11.27;70.11;99255.88;5013874;28;102648;-74
2024/01/24 07:05:10;;;;;;;1.92;1.35;;;;;;;11.27;70.24;99233.84;4991513;28;103446;-74
2024/01/24 07:07:38;;;;;;;1.25;1.10;;;;;;;11.32;69.98;99223.59;4988016;28;102736;-75
2024/01/24 07:10:11;;;;;;;1.65;1.20;;;;;;;11.33;70.25;99222.59;4992177;28;102736;-75
2024/01/24 07:12:44;;;;;;;1.48;1.20;;;;;;;11.35;70.27;99230.38;5000373;28;104568;-75
2024/01/24 07:15:14;;;;;;;2.55;1.30;;;;;;;11.43;69.63;99212.66;5003755;28;104108;-75
2024/01/24 07:17:43;;;;;;;2.67;1.40;;;;;;;11.37;69.94;99217.78;4989399;28;104162;-75
2024/01/24 07:20:12;;;;;;;3.10;1.50;;;;;;;11.51;69.56;99213.69;5008354;28;102678;-75
2024/01/24 07:22:40;;;;;;;1.60;1.30;;;;;;;11.48;69.68;99219.34;4988487;28;102778;-73
2024/01/24 07:25:09;;;;;;;2.05;1.25;;;;;;;11.55;69.33;99218.50;4980535;28;102901;-75
2024/01/24 07:27:37;;;;;;;2.33;1.42;;;;;;;11.54;69.34;99216.00;4999587;28;103272;-75
2024/01/24 07:30:06;;;;;;;3.30;1.60;;;;;;;11.61;69.28;99220.50;5009780;28;102756;-75
2024/01/24 07:32:35;;;;;;;3.75;1.30;;;;;;;11.61;69.01;99233.78;4998853;28;102881;-75
2024/01/24 07:35:07;;;;;;;2.28;1.20;;;;;;;11.72;68.75;99223.84;4992422;28;103265;-75
2024/01/24 07:37:36;;;;;;;1.47;1.13;;;;;;;11.74;68.77;99237.81;5000441;28;105400;-74
2024/01/24 07:40:05;;;;;;;2.15;1.17;;;;;;;11.82;68.53;99219.25;5006160;28;102992;-75
2024/01/24 07:42:33;;;;;;;1.90;1.13;;;;;;;11.86;68.48;99227.72;4993751;28;102930;-75
2024/01/24 07:45:01;;;;;;;1.65;1.40;;;;;;;11.87;68.29;99221.38;5002508;28;103359;-75
2024/01/24 07:47:31;;;;;;;1.80;1.00;;;;;;;11.86;68.61;99217.91;4982535;28;102919;-74
2024/01/24 07:49:59;;;;;;;2.08;1.20;;;;;;;11.91;68.13;99230.72;5006656;28;102991;-73
2024/01/24 07:52:28;;;;;;;2.70;1.13;;;;;;;11.92;68.25;99238.50;5007617;28;103051;-74
2024/01/24 07:55:09;;;;;;;1.50;1.00;;;;;;;11.98;68.18;99245.00;5000242;28;103569;-73
2024/01/24 07:57:38;;;;;;;2.20;1.40;;;;;;;12.04;68.00;99240.84;4987363;28;104373;-73
2024/01/24 08:00:07;;;;;;;1.55;1.20;;;;;;;11.94;68.10;99244.47;4966676;28;102776;-74
2024/01/24 08:02:35;;;;;;;1.77;1.00;;;;;;;11.98;68.32;99246.84;4976106;28;103001;-73
2024/01/24 08:05:04;;;;;;;1.90;1.00;;;;;;;12.01;68.16;99257.94;5009415;28;103487;-74
2024/01/24 08:07:36;;;;;;;2.72;1.20;;;;;;;12.02;68.27;99241.03;4996268;28;104091;-73
2024/01/24 08:10:06;;;;;;;1.40;1.13;;;;;;;12.05;68.54;99269.91;4983651;28;102829;-74
2024/01/24 08:12:34;;;;;;;1.10;0.88;;;;;;;12.09;68.33;99257.13;5002328;28;102618;-73
2024/01/24 08:15:05;;;;;;;1.73;1.02;;;;;;;12.16;68.23;99278.56;4983677;28;103435;-72
2024/01/24 08:17:34;;;;;;;1.50;1.38;;;;;;;12.15;68.00;99268.94;5003083;28;103396;-73
2024/01/24 08:20:08;;;;;;;1.55;0.98;;;;;;;12.19;68.11;99275.56;4996303;28;102675;-73
2024/01/24 08:22:38;;;;;;;2.70;1.30;;;;;;;12.15;67.97;99280.38;4998544;28;103058;-74
2024/01/24 08:25:07;;;;;;;1.77;0.95;;;;;;;12.21;67.84;99273.56;4965245;28;103327;-73
2024/01/24 08:27:36;;;;;;;2.38;1.00;;;;;;;12.26;67.67;99277.41;4984177;28;103258;-73
2024/01/24 08:30:06;;;;;;;1.75;1.10;;;;;;;12.30;67.97;99272.59;5005900;28;103024;-73
2024/01/24 08:32:40;;;;;;;1.10;0.85;;;;;;;12.25;68.12;99272.25;5002996;28;104316;-73
2024/01/24 08:35:09;;;;;;;0.80;0.80;;;;;;;12.27;67.76;99272.91;4998300;28;103364;-74
2024/01/24 08:37:39;;;;;;;1.45;0.80;;;;;;;12.31;67.59;99284.03;4982634;28;102725;-73
2024/01/24 08:40:10;;;;;;;1.58;0.98;;;;;;;12.33;67.58;99282.88;5007794;28;102627;-73
2024/01/24 08:42:41;;;;;;;0.75;0.70;;;;;;;12.35;67.73;99296.81;4996008;28;102677;-74
2024/01/24 08:45:10;;;;;;;1.55;1.10;;;;;;;12.38;67.75;99291.19;4997601;28;103358;-73
2024/01/24 08:47:38;;;;;;;1.58;0.65;;;;;;;12.42;67.48;99292.50;5007719;28;105156;-73
2024/01/24 08:50:08;;;;;;;0.80;0.80;;;;;;;12.37;67.99;99294.84;4994236;28;102779;-74
2024/01/24 08:52:36;;;;;;;1.92;0.90;;;;;;;12.43;67.79;99302.16;5002880;27;102955;-74
2024/01/24 08:55:07;;;;;;;0.82;0.80;;;;;;;12.47;67.70;99296.50;4988758;28;103263;-74
2024/01/24 08:57:35;;;;;;;4.00;0.95;;;;;;;12.40;68.03;99307.78;4999344;28;103327;-74
2024/01/24 09:00:07;;;;;;;0.70;0.65;;;;;;;12.40;68.11;99307.78;5003638;28;102724;-74
2024/01/24 09:02:36;;;;;;;0.93;0.70;;;;;;;12.49;68.24;99313.94;4986534;28;102825;-74
2024/01/24 09:05:05;;;;;;;0.70;0.70;;;;;;;12.43;68.53;99304.81;4982003;28;103377;-73
2024/01/24 09:07:33;;;;;;;0.75;0.75;;;;;;;12.46;68.75;99303.66;5005026;28;103229;-73
2024/01/24 09:10:01;;;;;;;1.73;1.25;;;;;;;12.50;68.36;99309.44;5001122;28;102709;-74
2024/01/24 09:12:31;;;;;;;1.70;1.05;;;;;;;12.54;68.65;99316.09;4981675;28;104215;-74
2024/01/24 09:14:59;;;;;;;0.98;0.82;;;;;;;12.47;68.58;99312.44;4964983;28;104485;-74
2024/01/24 09:17:28;;;;;;;0.80;0.65;;;;;;;12.48;68.92;99300.81;4991325;28;103334;-74
2024/01/24 09:19:56;;;;;;;0.70;0.70;;;;;;;12.53;68.80;99317.91;4999230;28;103407;-74
2024/01/24 09:22:24;;;;;;;1.83;0.93;;;;;;;12.48;69.01;99314.94;5002333;28;102851;-74
2024/01/24 09:24:52;;;;;;;0.80;0.70;;;;;;;12.52;68.87;99308.28;4989394;28;103244;-74
2024/01/24 09:27:20;;;;;;;0.90;0.75;;;;;;;12.57;68.96;99310.44;4985267;28;103192;-74
2024/01/24 09:29:49;;;;;;;1.80;1.40;;;;;;;12.60;68.83;99312.75;4981665;28;103049;-75
2024/01/24 09:32:17;;;;;;;0.73;0.50;;;;;;;12.47;69.52;99315.09;5000284;28;105048;-73
2024/01/24 09:34:49;;;;;;;1.40;0.70;;;;;;;12.56;69.54;99300.81;5003370;28;103354;-74
2024/01/24 09:37:20;;;;;;;0.50;0.50;;;;;;;12.55;69.88;99307.13;5000103;28;103485;-74
2024/01/24 09:39:49;;;;;;;0.77;0.47;;;;;;;12.52;70.13;99312.78;4978078;28;102819;-73
2024/01/24 09:42:25;;;;;;;0.60;0.57;;;;;;;12.43;70.40;99315.44;4980449;28;104132;-73
2024/01/24 09:44:59;;;;;;;0.65;0.57;;;;;;;12.43;70.46;99299.50;5004757;28;104457;-74
2024/01/24 09:47:27;;;;;;;0.70;0.70;;;;;;;12.52;70.43;99291.53;4989613;28;104217;-73
2024/01/24 09:49:59;;;;;;;0.90;0.70;;;;;;;12.63;69.92;99291.19;4981892;28;102812;-74
2024/01/24 09:52:28;;;;;;;0.60;0.60;;;;;;;12.67;70.06;99294.31;5005613;28;103352;-74
2024/01/24 09:55:00;;;;;;;0.88;0.60;;;;;;;12.63;70.08;99280.56;5009981;28;104247;-74
2024/01/24 09:57:28;;;;;;;0.73;0.65;;;;;;;12.64;70.07;99282.19;5006728;28;103200;-74
2024/01/24 09:59:58;;;;;;;0.85;0.60;;;;;;;12.82;69.43;99282.03;4990623;28;102794;-74
2024/01/24 10:02:27;;;;;;;0.95;0.77;;;;;;;12.80;69.24;99285.84;4973838;28;103246;-74
2024/01/24 10:04:56;;;;;;;0.52;0.52;;;;;;;12.72;69.71;99292.84;5006515;27;103299;-74
2024/01/24 10:07:24;;;;;;;0.82;0.60;;;;;;;12.77;69.72;99295.00;4993972;28;104153;-74
2024/01/24 10:10:06;;;;;;;1.15;0.63;;;;;;;12.77;69.35;99285.19;5006616;27;102746;-73
2024/01/24 10:12:35;;;;;;;0.82;0.70;;;;;;;12.79;69.02;99278.91;5007572;28;103785;-75
2024/01/24 10:15:07;;;;;;;4.10;1.13;;;;;;;12.95;68.94;99302.78;5002559;28;103250;-74
2024/01/24 10:17:35;;;;;;;0.47;0.47;;;;;;;13.02;68.51;99298.47;5002659;28;103697;-74
2024/01/24 10:20:06;;;;;;;1.02;0.88;;;;;;;12.95;68.83;99302.78;5009796;28;102935;-75
2024/01/24 10:22:34;;;;;;;0.75;0.75;;;;;;;12.95;69.02;99308.09;4986899;28;103070;-74
2024/01/24 10:25:02;;;;;;;0.98;0.90;;;;;;;13.00;68.87;99300.44;4988415;28;103496;-75
2024/01/24 10:27:30;;;;;;;0.63;0.63;;;;;;;13.00;68.49;99303.09;4974861;28;103424;-74
2024/01/24 10:30:01;;;;;;;0.50;0.50;;;;;;;13.06;68.38;99297.13;5006657;28;102707;-74
2024/01/24 10:32:32;;;;;;;0.75;0.75;;;;;;;13.21;67.94;99310.53;5002959;28;102783;-74
2024/01/24 10:35:04;;;;;;;0.60;0.60;;;;;;;13.34;67.00;99312.66;4989004;28;103508;-74
2024/01/24 10:37:33;;;;;;;1.08;0.77;;;;;;;13.31;66.84;99317.50;4980878;28;103255;-74
2024/01/24 10:40:05;;;;;;;1.27;0.50;;;;;;;13.29;67.20;99317.66;4987563;28;103023;-75
2024/01/24 10:42:36;;;;;;;1.33;0.80;;;;;;;13.24;67.02;99322.66;5006565;28;104076;-74
2024/01/24 10:45:05;;;;;;;0.65;0.65;;;;;;;13.17;69.25;99332.34;5008111;28;103351;-74
2024/01/24 10:47:35;;;;;;;0.52;0.52;;;;;;;13.04;69.76;99338.19;5004527;28;103259;-74
2024/01/24 10:50:04;;;;;;;2.30;0.70;;;;;;;12.98;69.52;99339.66;4983666;28;102893;-74
2024/01/24 10:52:33;;;;;;;0.52;0.52;;;;;;;13.17;69.27;99348.31;4994326;28;102690;-74
2024/01/24 10:55:06;;;;;;;1.02;0.65;;;;;;;13.27;69.21;99328.47;4998613;28;103224;-74
2024/01/24 10:57:36;;;;;;;0.50;0.50;;;;;;;13.39;68.73;99331.66;4998811;28;103219;-74
2024/01/24 11:00:05;;;;;;;0.75;0.75;;;;;;;13.33;68.74;99321.66;4999940;28;102659;-74
2024/01/24 11:02:35;;;;;;;1.73;0.82;;;;;;;13.21;67.81;99323.03;5003131;28;102804;-73
2024/01/24 11:05:05;;;;;;;1.65;0.70;;;;;;;13.30;67.42;99326.47;5004785;28;103454;-74
2024/01/24 11:07:41;;;;;;;1.15;0.80;;;;;;;13.36;66.75;99331.13;5001225;28;103223;-74
2024/01/24 11:10:19;;;;;;;4.55;0.90;;;;;;;13.34;66.56;99355.22;5005449;28;103138;-74
2024/01/24 11:12:48;;;;;;;2.17;0.93;;;;;;;13.25;67.60;99353.59;4984878;28;102641;-74
2024/01/24 11:15:18;;;;;;;1.35;0.90;;;;;;;13.13;68.28;99345.13;5001543;28;104534;-74
2024/01/24 11:18:21;;;;;;;1.70;0.77;;;;;;;13.09;69.53;99357.94;4994338;28;103287;-74
2024/01/24 11:20:51;;;;;;;0.55;0.55;;;;;;;12.97;70.21;99348.66;4999402;28;102689;-75
2024/01/24 11:23:40;;;;;;;1.77;0.80;;;;;;;12.88;71.24;99354.97;5000552;28;104780;-75
2024/01/24 11:26:12;;;;;;;0.50;0.50;;;;;;;12.87;71.79;99363.94;5000011;28;103213;-75
2024/01/24 11:28:40;;;;;;;0.88;0.82;;;;;;;12.88;71.88;99381.56;4987979;28;104451;-75
2024/01/24 11:31:12;;;;;;;2.63;0.98;;;;;;;12.94;72.41;99363.13;4996878;28;102570;-76
2024/01/24 11:34:07;;;;;;;1.20;0.88;;;;;;;12.77;74.94;99380.03;4984894;28;104346;-75
2024/01/24 11:36:42;;;;;;;0.60;0.60;;;;;;;12.77;75.12;99375.56;5004062;28;104374;-75
2024/01/24 11:39:35;;;;;;;0.85;0.80;;;;;;;12.76;76.00;99360.63;5008181;28;103240;-73